Time;durP1;ratioP1;P1;durP2;ratioP2;P2;SDS_P1;SDS_P2;PMS_P1;PMS_P2;Temp;Humidity;BMP_temperature;BMP_pressure;BME280_temperature;BME280_humidity;BME280_pressure;Samples;Min_cycle;Max_cycle;Signal;HPM_P1;HPM_P2
2023/01/05 00:01:49;;;;;;;3.62;2.17;;;;;;;6.85;100.00;97691.94;1761077;81;21087;-79
2023/01/05 00:04:16;;;;;;;3.02;1.60;;;;;;;6.84;100.00;97689.78;1760829;81;21295;-77
2023/01/05 00:06:43;;;;;;;5.40;2.17;;;;;;;6.85;100.00;97682.51;1760982;81;21527;-79
2023/01/05 00:09:12;;;;;;;3.33;2.22;;;;;;;6.84;100.00;97672.81;1760868;81;21265;-77
2023/01/05 00:22:49;;;;;;;1.75;1.00;;;;;;;6.89;100.00;97703.78;1760916;81;21708;-78
2023/01/05 00:25:22;;;;;;;5.05;1.70;;;;;;;6.93;100.00;97714.33;1761090;81;21468;-79
2023/01/05 00:27:50;;;;;;;6.33;1.72;;;;;;;6.97;100.00;97714.06;1760867;81;21373;-77
2023/01/05 00:30:23;;;;;;;1.98;1.17;;;;;;;7.01;100.00;97711.12;1761126;81;20999;-77
2023/01/05 00:32:50;;;;;;;1.85;1.20;;;;;;;7.03;100.00;97688.77;1760926;81;21087;-77
2023/01/05 00:35:17;;;;;;;3.50;1.60;;;;;;;7.06;100.00;97673.41;1760958;81;21016;-79
2023/01/05 00:37:44;;;;;;;1.67;1.00;;;;;;;7.07;100.00;97661.55;1760701;81;21059;-77
2023/01/05 00:40:14;;;;;;;9.50;2.67;;;;;;;7.07;100.00;97663.70;1761220;81;21008;-76
2023/01/05 00:42:41;;;;;;;2.92;0.95;;;;;;;7.07;100.00;97673.67;1761099;81;21424;-76
2023/01/05 00:45:11;;;;;;;5.83;2.70;;;;;;;7.06;100.00;97668.02;1760940;81;21015;-79
2023/01/05 00:47:38;;;;;;;7.03;3.10;;;;;;;7.02;100.00;97658.86;1760996;81;21007;-76
2023/01/05 00:50:07;;;;;;;4.80;2.72;;;;;;;7.01;100.00;97659.94;1761050;81;21054;-77
2023/01/05 00:52:34;;;;;;;2.08;1.50;;;;;;;7.02;100.00;97652.13;1761131;81;21015;-77
2023/01/05 00:55:01;;;;;;;2.92;1.57;;;;;;;7.03;100.00;97657.78;1761090;81;21006;-79
2023/01/05 00:57:28;;;;;;;3.77;1.25;;;;;;;7.03;100.00;97637.04;1730769;81;21030;-79
2023/01/05 00:59:54;;;;;;;4.65;2.17;;;;;;;7.10;100.00;97620.63;1730908;82;21519;-79
2023/01/05 01:02:21;;;;;;;2.98;1.75;;;;;;;7.11;100.00;97620.09;1730661;82;21075;-77
2023/01/05 01:04:48;;;;;;;1.75;1.00;;;;;;;7.11;100.00;97611.46;1730589;82;21002;-79
2023/01/05 01:07:15;;;;;;;2.10;1.05;;;;;;;7.16;100.00;97607.95;1730752;82;21011;-76
2023/01/05 01:09:42;;;;;;;3.47;1.27;;;;;;;7.21;100.00;97609.31;1730647;82;21018;-79
2023/01/05 01:12:09;;;;;;;2.47;1.05;;;;;;;7.22;100.00;97607.70;1730997;82;21169;-79
2023/01/05 01:14:37;;;;;;;1.55;0.98;;;;;;;7.24;100.00;97612.27;1730589;82;21007;-76
2023/01/05 01:17:04;;;;;;;1.45;1.02;;;;;;;7.25;100.00;97582.09;1730837;82;21547;-78
2023/01/05 01:19:31;;;;;;;2.02;1.10;;;;;;;7.23;100.00;97587.75;1730696;82;21019;-76
2023/01/05 01:21:58;;;;;;;4.85;1.87;;;;;;;7.29;100.00;97590.73;1730865;82;21078;-79
2023/01/05 01:24:29;;;;;;;1.57;0.90;;;;;;;7.31;100.00;97582.38;1730542;82;21070;-79
2023/01/05 01:26:56;;;;;;;2.60;1.55;;;;;;;7.32;100.00;97580.75;1730975;82;21058;-77
2023/01/05 01:29:23;;;;;;;1.60;1.12;;;;;;;7.34;100.00;97577.78;1730693;82;20995;-79
2023/01/05 01:31:51;;;;;;;0.80;0.70;;;;;;;7.40;100.00;97583.45;1730723;82;21014;-79
2023/01/05 01:34:18;;;;;;;2.72;1.10;;;;;;;7.41;100.00;97585.06;1730843;82;21007;-79
2023/01/05 01:36:45;;;;;;;3.37;1.10;;;;;;;7.44;100.00;97581.84;1730890;82;21057;-79
2023/01/05 01:39:12;;;;;;;3.47;0.65;;;;;;;7.50;100.00;97572.66;1730604;82;22167;-77
2023/01/05 01:41:39;;;;;;;1.42;0.78;;;;;;;7.50;100.00;97578.59;1731059;82;21082;-76
2023/01/05 01:44:45;;;;;;;3.58;2.12;;;;;;;7.54;100.00;97578.34;1730688;82;21090;-77
2023/01/05 01:47:36;;;;;;;1.75;1.00;;;;;;;7.59;100.00;97583.70;1727512;82;21598;-79
2023/01/05 01:50:20;;;;;;;2.45;1.50;;;;;;;7.62;100.00;97588.58;1727056;81;21803;-79
2023/01/05 01:52:49;;;;;;;1.87;1.32;;;;;;;7.62;100.00;97580.48;1745245;81;21623;-77
2023/01/05 01:55:16;;;;;;;1.45;1.10;;;;;;;7.64;100.00;97593.96;1768642;81;21008;-76
2023/01/05 01:57:44;;;;;;;1.67;0.80;;;;;;;7.63;100.00;97574.02;1714371;81;21022;-77
2023/01/05 02:00:13;;;;;;;1.55;0.75;;;;;;;7.67;100.00;97570.22;1769536;81;21042;-79
2023/01/05 02:02:40;;;;;;;3.02;0.88;;;;;;;7.70;100.00;97581.30;1747247;82;21051;-77
2023/01/05 02:05:09;;;;;;;1.65;0.90;;;;;;;7.72;100.00;97566.98;1761071;81;21031;-79
2023/01/05 02:07:40;;;;;;;2.00;1.20;;;;;;;7.76;100.00;97590.16;1760992;81;20991;-79
2023/01/05 02:10:08;;;;;;;2.47;0.82;;;;;;;7.86;100.00;97572.61;1760841;81;21071;-79
2023/01/05 02:13:06;;;;;;;1.07;0.72;;;;;;;7.82;100.00;97544.04;1760819;81;20999;-79
2023/01/05 02:15:53;;;;;;;1.40;0.85;;;;;;;7.85;100.00;97542.67;1761390;81;21386;-76
2023/01/05 02:18:35;;;;;;;0.90;0.80;;;;;;;7.85;100.00;97538.09;1760895;81;21012;-77
2023/01/05 02:21:33;;;;;;;1.37;0.98;;;;;;;7.85;100.00;97535.93;1760628;81;21000;-76
2023/01/05 02:24:23;;;;;;;0.90;0.70;;;;;;;7.90;100.00;97504.36;1760951;81;21542;-76
2023/01/05 02:27:04;;;;;;;0.70;0.70;;;;;;;7.87;100.00;97521.11;1760568;81;21035;-79
2023/01/05 02:30:03;;;;;;;0.98;0.82;;;;;;;7.85;100.00;97530.53;1762590;81;21076;-76
2023/01/05 02:32:41;;;;;;;2.58;1.37;;;;;;;7.87;100.00;97527.86;1762715;81;21524;-76
2023/01/05 02:35:40;;;;;;;1.70;1.32;;;;;;;7.88;100.00;97533.52;1749943;82;21457;-76
2023/01/05 02:38:21;;;;;;;1.52;1.42;;;;;;;7.88;100.00;97521.92;1770784;81;21045;-79
2023/01/05 02:40:51;;;;;;;0.90;0.62;;;;;;;8.05;100.00;97521.05;1771170;81;21007;-79
2023/01/05 02:43:20;;;;;;;;;;;;;;;7.91;100.00;97524.86;1773597;81;21170;-76
2023/01/05 02:45:47;;;;;;;1.00;0.70;;;;;;;7.92;100.00;97517.58;1771017;81;20173;-79
2023/01/05 02:48:14;;;;;;;3.50;1.07;;;;;;;7.91;100.00;97519.47;1770792;81;20995;-76
2023/01/05 02:50:59;;;;;;;1.70;1.10;;;;;;;7.89;100.00;97510.84;1770284;81;21055;-79
2023/01/05 02:53:34;;;;;;;0.78;0.60;;;;;;;7.85;100.00;97506.26;1768761;81;21007;-76
2023/01/05 02:56:19;;;;;;;1.90;1.02;;;;;;;7.82;100.00;97503.58;1760978;80;21708;-79
2023/01/05 02:58:51;;;;;;;1.62;1.10;;;;;;;7.82;100.00;97488.74;1730695;82;21082;-79
2023/01/05 03:01:28;;;;;;;1.65;0.95;;;;;;;7.81;100.00;97493.06;1731111;82;21039;-76
2023/01/05 03:04:13;;;;;;;0.93;0.68;;;;;;;7.84;100.00;97504.11;1730725;82;21019;-78
2023/01/05 03:06:56;;;;;;;2.25;1.00;;;;;;;7.86;100.00;97506.02;1730980;82;21043;-77
2023/01/05 03:09:27;;;;;;;4.10;2.12;;;;;;;7.89;100.00;97504.10;1730608;82;21540;-78
2023/01/05 03:15:25;;;;;;;1.47;1.00;;;;;;;7.99;100.00;97472.23;1730970;82;21030;-78
2023/01/05 03:18:02;;;;;;;3.20;2.30;;;;;;;8.05;100.00;97483.81;1730650;82;20980;-78
2023/01/05 03:20:31;;;;;;;1.57;0.80;;;;;;;8.13;100.00;97463.01;1730996;82;21074;-78
2023/01/05 03:37:28;;;;;;;1.20;1.00;;;;;;;8.17;100.00;97476.20;1730907;82;21676;-79
2023/01/05 03:39:54;;;;;;;3.40;1.00;;;;;;;8.18;100.00;97467.81;1701767;82;21047;-79
2023/01/05 03:42:21;;;;;;;2.15;0.93;;;;;;;8.20;100.00;97454.04;1730974;82;21055;-78
2023/01/05 03:44:48;;;;;;;1.15;0.62;;;;;;;8.20;100.00;97446.78;1730549;82;21023;-79
2023/01/05 03:47:15;;;;;;;1.50;0.68;;;;;;;8.22;100.00;97449.20;1701766;82;21043;-76
2023/01/05 03:49:42;;;;;;;1.98;1.00;;;;;;;8.31;100.00;97446.17;1732567;81;21015;-76
2023/01/05 03:52:09;;;;;;;1.50;0.62;;;;;;;8.35;100.00;97443.20;1760940;81;21463;-78
2023/01/05 03:54:36;;;;;;;1.00;0.88;;;;;;;8.36;100.00;97453.45;1760856;81;21070;-77
2023/01/05 03:57:03;;;;;;;0.50;0.50;;;;;;;8.35;100.00;97442.39;1735859;81;21464;-77
2023/01/05 03:59:30;;;;;;;2.00;1.60;;;;;;;8.43;100.00;97448.01;1730650;82;21024;-79
2023/01/05 04:01:57;;;;;;;1.87;1.10;;;;;;;8.42;100.00;97448.30;1730890;82;21094;-79
2023/01/05 04:04:24;;;;;;;3.08;1.25;;;;;;;8.44;100.00;97447.47;1730629;82;21027;-79
2023/01/05 04:06:51;;;;;;;2.17;0.95;;;;;;;8.47;100.00;97449.08;1730865;82;21059;-79
2023/01/05 04:09:18;;;;;;;1.37;0.70;;;;;;;8.50;100.00;97440.95;1730597;82;21627;-76
2023/01/05 04:11:44;;;;;;;1.90;0.93;;;;;;;8.52;100.00;97425.27;1730953;82;21067;-79
2023/01/05 04:14:11;;;;;;;2.72;0.90;;;;;;;8.55;100.00;97424.73;1730516;82;21871;-76
2023/01/05 04:16:38;;;;;;;1.42;0.95;;;;;;;8.58;100.00;97431.45;1730410;82;21015;-77
2023/01/05 04:19:05;;;;;;;0.72;0.62;;;;;;;8.57;100.00;97431.20;1729955;82;21543;-76
2023/01/05 04:21:32;;;;;;;1.62;0.80;;;;;;;8.63;100.00;97417.90;1730919;82;21020;-76
2023/01/05 04:23:59;;;;;;;1.80;0.78;;;;;;;8.61;100.00;97416.84;1730684;82;21043;-76
2023/01/05 04:26:26;;;;;;;0.93;0.72;;;;;;;8.62;100.00;97429.25;1730959;82;21167;-79
2023/01/05 04:28:53;;;;;;;1.92;0.90;;;;;;;8.64;100.00;97419.53;1730764;82;21198;-76
2023/01/05 04:31:19;;;;;;;1.00;0.70;;;;;;;8.64;100.00;97416.84;1730923;82;21505;-79
2023/01/05 04:33:46;;;;;;;3.50;1.37;;;;;;;8.65;100.00;97416.55;1730644;82;21015;-79
2023/01/05 04:36:13;;;;;;;1.57;0.80;;;;;;;8.74;100.00;97428.91;1730771;82;22045;-78
2023/01/05 04:38:40;;;;;;;1.85;0.88;;;;;;;8.74;100.00;97428.91;1730608;82;21071;-78
2023/01/05 04:41:07;;;;;;;1.05;0.80;;;;;;;8.75;100.00;97423.22;1730724;82;21527;-77
2023/01/05 04:43:34;;;;;;;0.93;0.60;;;;;;;8.76;100.00;97424.02;1730649;82;21075;-77
2023/01/05 04:46:01;;;;;;;2.95;1.00;;;;;;;8.77;100.00;97417.53;1730701;82;21464;-79
2023/01/05 04:48:30;;;;;;;0.70;0.62;;;;;;;8.74;100.00;97431.06;1730737;82;21019;-79
2023/01/05 04:50:57;;;;;;;0.70;0.60;;;;;;;8.73;100.00;97426.75;1748600;81;26181;-79
2023/01/05 04:53:24;;;;;;;3.22;0.70;;;;;;;8.74;100.00;97419.45;1760928;81;21503;-79
2023/01/05 04:55:51;;;;;;;0.47;0.40;;;;;;;8.74;100.00;97419.45;1751035;81;21023;-76
2023/01/05 04:58:18;;;;;;;1.15;0.60;;;;;;;8.74;100.00;97427.02;1730830;82;22097;-76
2023/01/05 05:00:47;;;;;;;3.17;1.05;;;;;;;8.78;100.00;97418.34;1702018;82;21059;-76
2023/01/05 05:03:14;;;;;;;0.90;0.68;;;;;;;8.79;100.00;97413.99;1730991;82;21042;-79
2023/01/05 05:05:41;;;;;;;1.07;0.57;;;;;;;8.71;100.00;97422.70;1730804;82;21028;-76
2023/01/05 05:08:08;;;;;;;1.07;0.80;;;;;;;8.62;100.00;97425.20;1730723;82;21015;-76
2023/01/05 05:10:34;;;;;;;1.20;0.90;;;;;;;8.58;100.00;97414.70;1730970;82;21524;-76
2023/01/05 05:13:01;;;;;;;0.78;0.70;;;;;;;8.48;100.00;97413.44;1730887;82;21028;-77
2023/01/05 05:15:28;;;;;;;1.92;1.05;;;;;;;8.43;100.00;97407.52;1730839;82;21058;-76
2023/01/05 05:17:55;;;;;;;1.40;0.80;;;;;;;8.43;100.00;97410.76;1730517;82;21004;-76
2023/01/05 05:20:22;;;;;;;3.02;1.30;;;;;;;8.31;100.00;97407.03;1731031;82;21000;-77
2023/01/05 05:22:49;;;;;;;5.80;1.55;;;;;;;8.28;100.00;97411.62;1730865;82;21079;-76
2023/01/05 05:25:16;;;;;;;6.72;2.05;;;;;;;8.24;100.00;97398.98;1730649;82;21082;-79
2023/01/05 05:27:43;;;;;;;6.95;2.00;;;;;;;8.20;100.00;97399.55;1730918;82;21047;-79
2023/01/05 05:30:10;;;;;;;22.17;10.48;;;;;;;8.14;100.00;97384.46;1730539;82;21071;-76
2023/01/05 05:32:37;;;;;;;1.80;1.50;;;;;;;8.11;100.00;97390.39;1730852;82;21047;-77
2023/01/05 05:35:05;;;;;;;4.42;3.02;;;;;;;8.09;100.00;97388.53;1730540;82;21051;-79
2023/01/05 05:37:32;;;;;;;3.90;3.17;;;;;;;8.08;100.00;97407.16;1730994;82;21424;-77
2023/01/05 05:39:59;;;;;;;3.67;2.55;;;;;;;8.06;100.00;97393.14;1730711;82;21008;-78
2023/01/05 05:42:26;;;;;;;5.53;2.15;;;;;;;8.04;100.00;97393.16;1730828;82;21539;-78
2023/01/05 05:44:55;;;;;;;1.80;1.00;;;;;;;8.03;100.00;97380.22;1730598;82;21004;-78
2023/01/05 05:47:22;;;;;;;1.85;0.93;;;;;;;8.04;100.00;97385.88;1731022;82;28459;-79
2023/01/05 05:49:49;;;;;;;1.20;1.00;;;;;;;8.07;100.00;97371.02;1733559;81;21020;-79
2023/01/05 05:52:15;;;;;;;1.42;0.70;;;;;;;8.07;100.00;97363.72;1757700;81;21130;-77
2023/01/05 05:54:42;;;;;;;1.40;0.93;;;;;;;8.08;100.00;97365.33;1757356;81;20992;-78
2023/01/05 05:57:09;;;;;;;1.37;0.90;;;;;;;8.10;100.00;97369.09;1760700;81;21082;-79
2023/01/05 05:59:36;;;;;;;1.55;0.80;;;;;;;8.13;100.00;97368.55;1760830;81;20972;-78
2023/01/05 06:02:03;;;;;;;1.20;0.80;;;;;;;8.14;100.00;97364.22;1761172;81;21452;-79
2023/01/05 06:04:30;;;;;;;2.85;1.32;;;;;;;8.17;100.00;97369.05;1760793;81;21253;-79
2023/01/05 06:06:57;;;;;;;1.90;0.90;;;;;;;8.23;100.00;97365.78;1745602;81;21019;-79
2023/01/05 06:09:24;;;;;;;2.40;1.47;;;;;;;8.25;100.00;97369.00;1743326;81;21058;-76
2023/01/05 06:11:51;;;;;;;1.37;1.07;;;;;;;8.25;100.00;97365.50;1749205;80;21495;-76
2023/01/05 06:14:18;;;;;;;2.87;0.80;;;;;;;8.27;100.00;97364.13;1754436;81;20989;-79
2023/01/05 06:16:44;;;;;;;1.20;0.95;;;;;;;8.29;100.00;97382.73;1757590;81;21707;-78
2023/01/05 06:19:11;;;;;;;1.47;1.07;;;;;;;8.31;100.00;97373.84;1758222;81;21019;-77
2023/01/05 06:21:38;;;;;;;2.08;1.00;;;;;;;8.34;100.00;97375.97;1767985;80;20980;-79
2023/01/05 06:24:06;;;;;;;1.67;1.07;;;;;;;8.39;100.00;97361.92;1792410;80;21047;-76
2023/01/05 06:26:33;;;;;;;1.42;0.82;;;;;;;8.43;100.00;97362.16;1792759;80;21476;-77
2023/01/05 06:29:00;;;;;;;1.45;0.90;;;;;;;8.46;100.00;97368.36;1758849;80;21197;-79
2023/01/05 06:31:27;;;;;;;3.25;1.45;;;;;;;8.51;100.00;97380.45;1751673;81;20998;-76
2023/01/05 06:33:54;;;;;;;27.02;14.25;;;;;;;8.51;100.00;97380.45;1744287;80;21003;-77
2023/01/05 06:36:20;;;;;;;4.97;2.20;;;;;;;8.52;100.00;97372.62;1730962;82;21023;-79
2023/01/05 06:38:47;;;;;;;4.08;2.25;;;;;;;8.54;100.00;97372.33;1730898;82;21022;-76
2023/01/05 06:41:15;;;;;;;2.92;1.85;;;;;;;8.63;100.00;97382.79;1730832;82;40016;-79
2023/01/05 06:43:42;;;;;;;14.05;12.85;;;;;;;8.63;100.00;97382.79;1730730;82;21011;-79
2023/01/05 06:46:09;;;;;;;7.20;6.00;;;;;;;8.63;100.00;97368.77;1757084;81;21063;-79
2023/01/05 06:48:36;;;;;;;3.42;2.47;;;;;;;8.65;100.00;97373.34;1762675;81;21064;-76
2023/01/05 06:51:03;;;;;;;4.67;2.87;;;;;;;8.65;100.00;97379.28;1759438;80;21018;-77
2023/01/05 06:53:30;;;;;;;2.72;2.02;;;;;;;8.70;100.00;97388.13;1738040;81;21549;-76
2023/01/05 06:55:57;;;;;;;5.03;2.30;;;;;;;8.71;100.00;97384.34;1749154;81;22127;-78
2023/01/05 06:58:24;;;;;;;4.50;2.42;;;;;;;8.69;100.00;97397.33;1761106;81;21078;-77
2023/01/05 07:00:53;;;;;;;5.87;1.90;;;;;;;8.69;100.00;97397.33;1758267;81;21064;-79
2023/01/05 07:03:22;;;;;;;6.92;2.37;;;;;;;8.70;100.00;97390.03;1751544;81;21043;-78
2023/01/05 07:05:49;;;;;;;7.37;2.27;;;;;;;8.70;100.00;97377.33;1749851;80;21177;-77
2023/01/05 07:08:16;;;;;;;3.98;2.05;;;;;;;8.71;100.00;97376.23;1735585;80;21034;-79
2023/01/05 07:10:43;;;;;;;4.03;2.00;;;;;;;8.67;100.00;97368.45;1731446;80;21500;-76
2023/01/05 07:13:10;;;;;;;3.98;1.82;;;;;;;8.73;100.00;97384.08;1736688;81;21019;-79
2023/01/05 07:15:37;;;;;;;6.25;2.87;;;;;;;8.74;100.00;97365.44;1736439;80;21925;-76
2023/01/05 07:18:04;;;;;;;6.20;2.40;;;;;;;8.74;100.00;97365.44;1756765;81;21007;-77
2023/01/05 07:20:30;;;;;;;4.90;2.10;;;;;;;8.83;100.00;97374.53;1754769;80;21916;-76
2023/01/05 07:22:57;;;;;;;5.42;3.25;;;;;;;8.86;100.00;97373.16;1772288;80;21014;-79
2023/01/05 07:25:30;;;;;;;4.95;2.08;;;;;;;8.86;100.00;97371.25;1750645;81;21455;-79
2023/01/05 07:27:53;;;;;;;20.02;12.70;;;;;;;8.86;100.00;97371.25;1748400;80;21510;-76
2023/01/05 07:30:20;;;;;;;33.90;21.15;;;;;;;8.90;100.00;97393.13;1781694;80;21047;-76
2023/01/05 07:32:47;;;;;;;9.78;5.62;;;;;;;8.92;100.00;97386.88;1742525;81;21147;-78
2023/01/05 07:35:14;;;;;;;6.40;3.80;;;;;;;8.97;100.00;97398.47;1744898;81;21411;-79
2023/01/05 07:37:43;;;;;;;6.92;2.98;;;;;;;9.02;100.00;97386.79;1740360;80;21070;-79
2023/01/05 07:40:10;;;;;;;6.97;2.17;;;;;;;9.08;100.00;97384.30;1743843;80;20996;-76
2023/01/05 07:42:37;;;;;;;6.80;2.80;;;;;;;9.20;100.00;97379.30;1743557;81;21712;-79
2023/01/05 07:45:06;;;;;;;7.87;3.55;;;;;;;9.20;100.00;97379.30;1753296;81;21036;-79
2023/01/05 07:47:33;;;;;;;5.45;4.03;;;;;;;9.22;100.00;97385.77;1745612;81;21031;-77
2023/01/05 07:50:00;;;;;;;6.87;2.27;;;;;;;9.24;100.00;97389.83;1738663;81;21067;-79
2023/01/05 07:52:29;;;;;;;5.87;3.25;;;;;;;9.24;100.00;97401.19;1750386;81;20980;-77
2023/01/05 07:54:57;;;;;;;15.00;7.47;;;;;;;9.16;100.00;97410.72;1742976;80;21111;-79
2023/01/05 07:57:24;;;;;;;8.55;4.90;;;;;;;9.07;100.00;97422.44;1746804;81;21062;-79
2023/01/05 07:59:50;;;;;;;4.87;2.85;;;;;;;8.96;100.00;97435.20;1742007;80;21034;-77
2023/01/05 08:02:17;;;;;;;11.70;6.37;;;;;;;8.84;100.00;97440.18;1742282;80;20999;-79
2023/01/05 08:04:45;;;;;;;8.90;4.53;;;;;;;8.76;100.00;97450.49;1744740;81;21078;-76
2023/01/05 08:07:14;;;;;;;17.62;10.23;;;;;;;8.55;100.00;97457.69;1715658;81;21932;-79
2023/01/05 08:12:28;;;;;;;10.78;6.85;;;;;;;8.36;100.00;97492.05;1739913;81;21023;-78
2023/01/05 08:14:55;;;;;;;23.32;20.82;;;;;;;7.83;100.00;97497.64;1745444;81;22009;-76
2023/01/05 08:17:21;;;;;;;25.23;22.62;;;;;;;7.51;100.00;97502.02;1750706;81;21054;-79
2023/01/05 08:19:48;;;;;;;30.10;20.35;;;;;;;7.02;100.00;97504.77;1755037;80;21847;-76
2023/01/05 08:22:15;;;;;;;22.90;14.40;;;;;;;6.87;100.00;97509.33;1752568;81;21008;-76
2023/01/05 08:24:42;;;;;;;32.70;22.82;;;;;;;6.63;100.00;97525.17;1744623;80;21012;-76
2023/01/05 08:27:09;;;;;;;20.90;14.07;;;;;;;6.58;100.00;97538.61;1737246;81;21114;-76
2023/01/05 08:29:36;;;;;;;27.52;16.65;;;;;;;6.48;100.00;97546.92;1737512;81;21539;-75
2023/01/05 08:32:04;;;;;;;8.50;4.47;;;;;;;6.38;100.00;97546.09;1739282;80;21615;-76
2023/01/05 08:34:31;;;;;;;13.15;9.33;;;;;;;6.36;100.00;97559.81;1740381;81;21970;-75
2023/01/05 08:36:57;;;;;;;8.13;5.30;;;;;;;6.33;100.00;97550.94;1760482;80;21036;-78
2023/01/05 08:39:24;;;;;;;19.52;13.25;;;;;;;6.35;100.00;97549.32;1751487;80;21198;-76
2023/01/05 08:41:51;;;;;;;80.77;61.05;;;;;;;6.36;100.00;97531.56;1749402;80;21003;-78
2023/01/05 08:44:18;;;;;;;4.00;2.22;;;;;;;6.35;100.00;97530.48;1736700;81;21010;-78
2023/01/05 08:46:45;;;;;;;4.92;1.95;;;;;;;6.36;100.00;97524.02;1745566;81;21020;-78
2023/01/05 08:49:12;;;;;;;4.90;2.45;;;;;;;6.43;100.00;97548.27;1734901;81;21507;-76
2023/01/05 08:51:39;;;;;;;5.20;2.00;;;;;;;6.48;100.00;97558.23;1749340;81;21000;-76
2023/01/05 08:54:06;;;;;;;6.25;4.30;;;;;;;6.53;100.00;97552.88;1743107;80;21482;-78
2023/01/05 08:56:33;;;;;;;4.67;2.22;;;;;;;6.56;100.00;97558.27;1748971;80;21054;-78
2023/01/05 08:59:00;;;;;;;7.03;2.40;;;;;;;6.55;100.00;97556.64;1744029;80;21474;-76
2023/01/05 09:01:27;;;;;;;6.33;2.55;;;;;;;6.55;100.00;97543.19;1756256;80;21007;-78
2023/01/05 09:03:54;;;;;;;7.28;3.47;;;;;;;6.52;100.00;97547.23;1749118;81;21020;-76
2023/01/05 09:06:20;;;;;;;5.92;2.20;;;;;;;6.49;100.00;97539.16;1741116;81;21019;-78
2023/01/05 09:08:47;;;;;;;10.93;5.50;;;;;;;6.48;100.00;97537.51;1743346;80;21034;-79
2023/01/05 09:11:20;;;;;;;28.50;17.75;;;;;;;6.49;100.00;97534.28;1739235;81;21030;-79
2023/01/05 09:13:54;;;;;;;12.00;10.18;;;;;;;6.52;100.00;97551.80;1739289;81;21042;-76
2023/01/05 09:16:27;;;;;;;6.00;3.45;;;;;;;6.61;100.00;97521.94;1749385;81;21001;-76
2023/01/05 09:18:56;;;;;;;4.95;3.40;;;;;;;6.67;100.00;97531.66;1744203;81;21049;-78
2023/01/05 09:21:22;;;;;;;;;;;;;;;6.74;100.00;97508.76;1716989;81;21072;-76
2023/01/05 09:23:50;;;;;;;4.42;1.65;;;;;;;6.77;100.00;97510.13;1759513;80;20159;-78
2023/01/05 09:26:17;;;;;;;4.92;2.30;;;;;;;6.80;100.00;97509.58;1737273;81;21020;-76
2023/01/05 09:28:44;;;;;;;6.45;2.52;;;;;;;6.83;100.00;97504.19;1746333;81;21014;-78
2023/01/05 09:31:19;;;;;;;7.92;3.67;;;;;;;6.83;100.00;97511.73;1743891;81;21028;-75
2023/01/05 09:33:46;;;;;;;6.53;3.83;;;;;;;6.89;100.00;97502.59;1746930;80;21119;-75
2023/01/05 09:36:15;;;;;;;3.30;1.20;;;;;;;6.93;100.00;97510.42;1750152;80;22070;-76
2023/01/05 09:38:42;;;;;;;2.35;1.30;;;;;;;7.05;100.00;97504.76;1751466;81;21521;-78
2023/01/05 09:41:29;;;;;;;1.60;1.20;;;;;;;7.12;100.00;97507.19;1738911;80;21074;-79
2023/01/05 09:44:03;;;;;;;4.20;1.40;;;;;;;7.23;100.00;97504.21;1749976;81;21035;-76
2023/01/05 09:46:37;;;;;;;4.92;1.85;;;;;;;7.40;100.00;97500.42;1742196;81;21011;-76
2023/01/05 09:49:05;;;;;;;6.97;4.67;;;;;;;7.51;100.00;97497.98;1743456;80;21073;-76
2023/01/05 09:51:32;;;;;;;17.48;8.08;;;;;;;7.53;100.00;97507.43;1750248;80;21018;-76
2023/01/05 09:53:59;;;;;;;19.98;10.03;;;;;;;7.59;100.00;97494.73;1735133;80;21055;-77
2023/01/05 09:56:34;;;;;;;12.65;5.80;;;;;;;7.63;100.00;97495.27;1739081;80;21039;-79
2023/01/05 09:59:12;;;;;;;14.83;8.10;;;;;;;7.74;100.00;97496.59;1731432;81;21603;-78
2023/01/05 10:01:39;;;;;;;6.33;3.77;;;;;;;7.90;100.00;97487.38;1738327;80;20981;-76
2023/01/05 10:04:17;;;;;;;10.28;5.03;;;;;;;8.00;100.00;97479.78;1753000;80;21432;-79
2023/01/05 10:06:50;;;;;;;9.50;5.15;;;;;;;8.10;100.00;97486.48;1776467;80;21467;-76
2023/01/05 10:09:21;;;;;;;5.00;2.50;;;;;;;8.22;100.00;97470.78;1730612;81;21078;-79
2023/01/05 10:14:52;;;;;;;4.58;1.70;;;;;;;8.42;100.00;97478.80;1744256;80;21013;-76
2023/01/05 10:17:21;;;;;;;3.27;1.70;;;;;;;8.54;100.00;97491.15;1753053;81;21020;-79
2023/01/05 10:19:48;;;;;;;2.65;1.57;;;;;;;8.56;100.00;97500.61;1746872;80;21031;-79
2023/01/05 10:22:26;;;;;;;3.45;1.50;;;;;;;8.50;100.00;97501.71;1741848;80;21802;-76
2023/01/05 10:25:01;;;;;;;2.72;1.67;;;;;;;8.50;100.00;97496.86;1747592;80;21501;-76
2023/01/05 10:27:58;;;;;;;3.08;1.67;;;;;;;8.66;100.00;97495.14;1738688;81;21027;-78
2023/01/05 10:30:32;;;;;;;3.62;2.27;;;;;;;8.66;100.00;97495.14;1755006;81;21516;-79
2023/01/05 10:33:17;;;;;;;4.12;1.85;;;;;;;8.73;100.00;97488.89;1726016;80;21020;-76
2023/01/05 10:36:25;;;;;;;3.05;1.22;;;;;;;8.70;100.00;97498.08;1735257;81;21012;-79
2023/01/05 10:39:12;;;;;;;4.72;2.95;;;;;;;8.64;100.00;97491.11;1748889;80;21032;-76
2023/01/05 10:41:54;;;;;;;2.30;1.45;;;;;;;8.70;100.00;97494.02;1745131;80;21063;-79
2023/01/05 10:44:38;;;;;;;2.60;1.47;;;;;;;8.70;100.00;97488.08;1745908;81;21051;-76
2023/01/05 10:47:09;;;;;;;3.87;2.00;;;;;;;8.72;100.00;97479.17;1764711;80;21063;-77
2023/01/05 10:49:37;;;;;;;2.72;1.30;;;;;;;8.73;100.00;97466.47;1753033;80;21474;-79
2023/01/05 10:52:04;;;;;;;4.83;2.15;;;;;;;8.80;100.00;97471.53;1735914;80;21075;-79
2023/01/05 10:54:41;;;;;;;3.15;1.52;;;;;;;8.77;97.53;97467.50;1716894;81;22145;-76
2023/01/05 10:57:31;;;;;;;1.25;0.80;;;;;;;8.90;100.00;97483.64;1744426;81;21023;-79
2023/01/05 11:00:11;;;;;;;1.82;1.02;;;;;;;8.97;100.00;97459.78;1745026;81;21000;-76
2023/01/05 11:03:00;;;;;;;2.00;1.32;;;;;;;8.91;98.73;97459.58;1755530;81;21034;-76
2023/01/05 11:05:36;;;;;;;4.15;1.95;;;;;;;8.94;100.00;97449.55;1745638;81;21087;-79
2023/01/05 11:08:13;;;;;;;5.15;1.67;;;;;;;8.98;100.00;97468.98;1736851;80;21031;-76
2023/01/05 11:10:53;;;;;;;3.98;1.02;;;;;;;8.97;100.00;97467.89;1741429;80;21008;-79
2023/01/05 11:13:30;;;;;;;2.20;1.40;;;;;;;8.98;100.00;97464.13;1755686;80;20991;-76
2023/01/05 11:16:14;;;;;;;3.60;1.47;;;;;;;9.00;100.00;97457.89;1758436;79;22014;-79
2023/01/05 11:18:54;;;;;;;4.85;3.17;;;;;;;9.08;99.39;97466.73;1751962;79;21055;-76
2023/01/05 11:21:23;;;;;;;3.92;2.20;;;;;;;9.12;100.00;97451.55;1749809;81;20983;-76
2023/01/05 11:23:52;;;;;;;;;;;;;;;9.19;100.00;97452.58;1770471;79;21023;-79
2023/01/05 11:26:27;;;;;;;5.12;4.62;;;;;;;9.23;99.06;97450.94;1745562;79;20239;-79
2023/01/05 11:29:14;;;;;;;3.87;2.17;;;;;;;9.29;95.54;97453.84;1748892;80;21022;-79
2023/01/05 11:31:50;;;;;;;4.00;3.17;;;;;;;9.40;97.88;97456.73;1746990;80;21008;-79
2023/01/05 11:34:42;;;;;;;3.58;1.40;;;;;;;9.48;97.44;97458.78;1746714;81;21003;-76
2023/01/05 11:37:25;;;;;;;2.58;1.90;;;;;;;9.50;96.36;97449.86;1760919;80;21007;-76
2023/01/05 11:40:03;;;;;;;7.00;4.20;;;;;;;9.55;97.12;97447.63;1731503;82;20997;-76
2023/01/05 11:42:32;;;;;;;13.75;12.35;;;;;;;9.59;97.00;97455.45;1724083;81;21054;-76
2023/01/05 11:45:05;;;;;;;;;;;;;;;9.54;94.28;97444.12;1758553;80;21743;-79
2023/01/05 11:47:41;;;;;;;2.50;1.30;;;;;;;9.57;95.56;97458.44;1743721;81;20513;-78
2023/01/05 11:50:26;;;;;;;5.85;1.55;;;;;;;9.57;96.33;97454.91;1739800;80;21512;-79
2023/01/05 11:52:56;;;;;;;3.70;2.00;;;;;;;9.55;95.36;97442.22;1739977;81;20992;-76
2023/01/05 11:55:39;;;;;;;8.78;4.97;;;;;;;9.55;95.10;97456.55;1745167;81;21031;-79
2023/01/05 11:58:22;;;;;;;4.22;1.77;;;;;;;9.61;95.48;97449.20;1755266;81;21600;-79
2023/01/05 12:01:12;;;;;;;4.40;2.50;;;;;;;9.71;94.89;97454.48;1742064;81;21012;-77
2023/01/05 12:04:10;;;;;;;3.75;1.35;;;;;;;9.81;95.04;97440.84;1761739;81;21059;-76
2023/01/05 12:07:09;;;;;;;2.65;1.40;;;;;;;9.80;93.81;97450.61;1742688;81;21018;-79
2023/01/05 12:09:39;;;;;;;12.15;7.03;;;;;;;9.83;93.68;97442.73;1756770;81;21016;-76
2023/01/05 12:12:39;;;;;;;3.92;2.00;;;;;;;9.92;94.11;97435.33;1724052;81;21758;-79
2023/01/05 12:15:32;;;;;;;4.33;2.52;;;;;;;9.94;92.72;97455.59;1747071;81;21071;-76
2023/01/05 12:18:16;;;;;;;6.28;2.00;;;;;;;9.97;92.20;97455.55;1762916;81;21059;-76
2023/01/05 12:20:54;;;;;;;2.45;1.30;;;;;;;9.96;91.44;97450.69;1751547;81;21039;-79
2023/01/05 12:23:44;;;;;;;;;;;;;;;9.90;91.44;97459.95;1745682;81;21060;-78
2023/01/05 12:26:25;;;;;;;4.80;1.20;;;;;;;9.99;89.33;97454.70;1707978;81;20899;-79
2023/01/05 12:29:20;;;;;;;4.00;2.02;;;;;;;10.05;89.54;97453.01;1755509;81;21090;-79